Terminal Aerodrome Forecast
Issued by NWS Bismarck, ND

Home | Current Version | Previous Version | Text Only | Print | Product List | Glossary Off
Versions: 1 2 3 4 5 6 7 8 9 10 11 12 13 14 15

000
FTUS43 KBIS 081127
TAFISN
TAF
KISN 081127Z 0812/0912 31015KT P6SM SCT120
     FM082100 30008KT P6SM BKN080
     FM090100 30004KT P6SM OVC050
     FM090800 33004KT P6SM VCSH OVC035=

USA.gov is the U.S. government's official web portal to all federal, state and local government web resources and services.